sensor_id;sensor_type;location;lat;lon;timestamp;pressure;altitude;pressure_sealevel;temperature;humidity
71105;BME280;58760;48.716;8.962;2024-02-26T00:00:27;94636.56;;;5.97;100.00
71105;BME280;58760;48.716;8.962;2024-02-26T00:02:54;94635.16;;;5.94;100.00
71105;BME280;58760;48.716;8.962;2024-02-26T00:05:19;94631.59;;;6.08;100.00
71105;BME280;58760;48.716;8.962;2024-02-26T00:07:45;94628.56;;;6.11;100.00
71105;BME280;58760;48.716;8.962;2024-02-26T00:10:10;94628.50;;;5.98;100.00
71105;BME280;58760;48.716;8.962;2024-02-26T00:12:36;94633.78;;;6.05;100.00
71105;BME280;58760;48.716;8.962;2024-02-26T00:15:01;94619.19;;;6.02;100.00
71105;BME280;58760;48.716;8.962;2024-02-26T00:17:26;94621.78;;;5.96;100.00
71105;BME280;58760;48.716;8.962;2024-02-26T00:19:52;94630.53;;;6.03;100.00
71105;BME280;58760;48.716;8.962;2024-02-26T00:22:19;94635.63;;;6.04;100.00
71105;BME280;58760;48.716;8.962;2024-02-26T00:24:45;94622.09;;;6.07;100.00
71105;BME280;58760;48.716;8.962;2024-02-26T00:27:10;94628.69;;;5.97;100.00
71105;BME280;58760;48.716;8.962;2024-02-26T00:29:36;94629.00;;;5.87;100.00
71105;BME280;58760;48.716;8.962;2024-02-26T00:32:01;94635.56;;;5.76;100.00
71105;BME280;58760;48.716;8.962;2024-02-26T00:34:27;94629.88;;;5.73;100.00
71105;BME280;58760;48.716;8.962;2024-02-26T00:36:52;94626.63;;;5.71;100.00
71105;BME280;58760;48.716;8.962;2024-02-26T00:39:18;94637.63;;;5.81;100.00
71105;BME280;58760;48.716;8.962;2024-02-26T00:41:43;94636.13;;;5.93;100.00
71105;BME280;58760;48.716;8.962;2024-02-26T00:44:09;94633.63;;;5.85;100.00
71105;BME280;58760;48.716;8.962;2024-02-26T00:46:35;94631.72;;;5.79;100.00
71105;BME280;58760;48.716;8.962;2024-02-26T00:49:01;94628.94;;;5.80;100.00
71105;BME280;58760;48.716;8.962;2024-02-26T00:51:28;94633.97;;;5.82;100.00
71105;BME280;58760;48.716;8.962;2024-02-26T00:53:54;94615.56;;;5.82;100.00
71105;BME280;58760;48.716;8.962;2024-02-26T00:56:21;94617.03;;;5.85;100.00
71105;BME280;58760;48.716;8.962;2024-02-26T00:58:47;94591.22;;;6.29;100.00
71105;BME280;58760;48.716;8.962;2024-02-26T01:01:14;94594.34;;;6.11;100.00
71105;BME280;58760;48.716;8.962;2024-02-26T01:03:39;94591.72;;;6.11;100.00
71105;BME280;58760;48.716;8.962;2024-02-26T01:06:05;94585.78;;;6.30;100.00
71105;BME280;58760;48.716;8.962;2024-02-26T01:08:31;94587.44;;;6.04;100.00
71105;BME280;58760;48.716;8.962;2024-02-26T01:10:57;94594.19;;;6.19;100.00
71105;BME280;58760;48.716;8.962;2024-02-26T01:13:22;94582.38;;;6.09;100.00
71105;BME280;58760;48.716;8.962;2024-02-26T01:15:48;94590.44;;;6.01;100.00
71105;BME280;58760;48.716;8.962;2024-02-26T01:18:14;94609.47;;;6.03;100.00
71105;BME280;58760;48.716;8.962;2024-02-26T01:20:40;94621.75;;;6.17;100.00
71105;BME280;58760;48.716;8.962;2024-02-26T01:23:05;94633.41;;;6.36;100.00
71105;BME280;58760;48.716;8.962;2024-02-26T01:25:32;94639.09;;;6.11;100.00
71105;BME280;58760;48.716;8.962;2024-02-26T01:27:58;94654.06;;;6.04;100.00
71105;BME280;58760;48.716;8.962;2024-02-26T01:30:23;94654.25;;;5.82;100.00
71105;BME280;58760;48.716;8.962;2024-02-26T01:32:49;94655.63;;;5.77;100.00
71105;BME280;58760;48.716;8.962;2024-02-26T01:35:15;94664.22;;;5.86;100.00
71105;BME280;58760;48.716;8.962;2024-02-26T01:37:40;94651.28;;;5.70;100.00
71105;BME280;58760;48.716;8.962;2024-02-26T01:40:08;94651.94;;;5.93;100.00
71105;BME280;58760;48.716;8.962;2024-02-26T01:42:35;94645.72;;;5.79;100.00
71105;BME280;58760;48.716;8.962;2024-02-26T01:45:04;94640.78;;;6.19;100.00
71105;BME280;58760;48.716;8.962;2024-02-26T01:47:30;94642.06;;;6.02;100.00
71105;BME280;58760;48.716;8.962;2024-02-26T01:49:57;94660.25;;;6.24;100.00
71105;BME280;58760;48.716;8.962;2024-02-26T01:52:22;94661.47;;;6.22;100.00
71105;BME280;58760;48.716;8.962;2024-02-26T01:54:48;94681.09;;;6.19;100.00
71105;BME280;58760;48.716;8.962;2024-02-26T01:57:14;94689.75;;;6.13;100.00
71105;BME280;58760;48.716;8.962;2024-02-26T01:59:41;94694.09;;;6.00;100.00
71105;BME280;58760;48.716;8.962;2024-02-26T02:02:08;94689.38;;;6.16;100.00
71105;BME280;58760;48.716;8.962;2024-02-26T02:04:36;94677.03;;;6.17;100.00
71105;BME280;58760;48.716;8.962;2024-02-26T02:07:03;94683.94;;;6.24;100.00
71105;BME280;58760;48.716;8.962;2024-02-26T02:09:30;94682.44;;;6.37;100.00
71105;BME280;58760;48.716;8.962;2024-02-26T02:11:57;94685.94;;;6.16;100.00
71105;BME280;58760;48.716;8.962;2024-02-26T02:14:24;94686.13;;;6.14;100.00
71105;BME280;58760;48.716;8.962;2024-02-26T02:16:50;94687.75;;;6.15;100.00
71105;BME280;58760;48.716;8.962;2024-02-26T02:19:16;94693.38;;;6.12;100.00
71105;BME280;58760;48.716;8.962;2024-02-26T02:21:41;94689.84;;;5.99;100.00
71105;BME280;58760;48.716;8.962;2024-02-26T02:24:07;94686.47;;;6.11;100.00
71105;BME280;58760;48.716;8.962;2024-02-26T02:26:33;94706.16;;;6.15;100.00
71105;BME280;58760;48.716;8.962;2024-02-26T02:28:58;94686.53;;;6.18;100.00
71105;BME280;58760;48.716;8.962;2024-02-26T02:31:25;94702.88;;;6.62;100.00
71105;BME280;58760;48.716;8.962;2024-02-26T02:33:50;94696.66;;;6.42;100.00
71105;BME280;58760;48.716;8.962;2024-02-26T02:36:17;94698.97;;;6.58;100.00
71105;BME280;58760;48.716;8.962;2024-02-26T02:38:52;94680.06;;;6.48;100.00
71105;BME280;58760;48.716;8.962;2024-02-26T02:41:18;94661.09;;;6.59;100.00
71105;BME280;58760;48.716;8.962;2024-02-26T02:43:44;94667.16;;;6.53;100.00
71105;BME280;58760;48.716;8.962;2024-02-26T02:46:10;94668.25;;;6.72;100.00
71105;BME280;58760;48.716;8.962;2024-02-26T02:48:38;94655.88;;;6.66;100.00
71105;BME280;58760;48.716;8.962;2024-02-26T02:51:04;94657.78;;;6.51;100.00
71105;BME280;58760;48.716;8.962;2024-02-26T02:53:30;94656.53;;;6.81;100.00
71105;BME280;58760;48.716;8.962;2024-02-26T02:55:55;94646.53;;;6.70;100.00
71105;BME280;58760;48.716;8.962;2024-02-26T02:58:21;94655.69;;;6.74;100.00
71105;BME280;58760;48.716;8.962;2024-02-26T03:00:46;94654.28;;;6.78;100.00
71105;BME280;58760;48.716;8.962;2024-02-26T03:03:11;94656.31;;;6.76;100.00
71105;BME280;58760;48.716;8.962;2024-02-26T03:05:37;94680.75;;;6.63;100.00
71105;BME280;58760;48.716;8.962;2024-02-26T03:08:05;94675.13;;;6.66;100.00
71105;BME280;58760;48.716;8.962;2024-02-26T03:10:31;94666.59;;;6.64;100.00
71105;BME280;58760;48.716;8.962;2024-02-26T03:12:58;94676.69;;;6.95;100.00
71105;BME280;58760;48.716;8.962;2024-02-26T03:15:31;94665.13;;;7.03;100.00
71105;BME280;58760;48.716;8.962;2024-02-26T03:17:58;94670.44;;;7.09;100.00
71105;BME280;58760;48.716;8.962;2024-02-26T03:20:26;94664.38;;;7.15;100.00
71105;BME280;58760;48.716;8.962;2024-02-26T03:22:52;94666.88;;;7.36;100.00
71105;BME280;58760;48.716;8.962;2024-02-26T03:25:17;94663.81;;;7.26;100.00
71105;BME280;58760;48.716;8.962;2024-02-26T03:27:44;94666.31;;;6.94;100.00
71105;BME280;58760;48.716;8.962;2024-02-26T03:30:09;94654.94;;;6.87;100.00
71105;BME280;58760;48.716;8.962;2024-02-26T03:32:35;94642.69;;;6.66;100.00
71105;BME280;58760;48.716;8.962;2024-02-26T03:35:00;94640.69;;;6.74;100.00
71105;BME280;58760;48.716;8.962;2024-02-26T03:37:26;94645.47;;;6.58;100.00
71105;BME280;58760;48.716;8.962;2024-02-26T03:39:51;94634.72;;;6.53;100.00
71105;BME280;58760;48.716;8.962;2024-02-26T03:42:17;94660.78;;;6.41;100.00
71105;BME280;58760;48.716;8.962;2024-02-26T03:44:42;94653.66;;;6.35;100.00
71105;BME280;58760;48.716;8.962;2024-02-26T03:47:08;94667.63;;;6.36;100.00
71105;BME280;58760;48.716;8.962;2024-02-26T03:49:33;94671.03;;;6.29;100.00
71105;BME280;58760;48.716;8.962;2024-02-26T03:51:59;94663.38;;;6.35;100.00
71105;BME280;58760;48.716;8.962;2024-02-26T03:54:24;94645.25;;;6.53;100.00
71105;BME280;58760;48.716;8.962;2024-02-26T03:56:51;94626.06;;;6.65;100.00
71105;BME280;58760;48.716;8.962;2024-02-26T03:59:17;94628.03;;;6.57;100.00
71105;BME280;58760;48.716;8.962;2024-02-26T04:01:47;94641.38;;;6.49;100.00
71105;BME280;58760;48.716;8.962;2024-02-26T04:04:13;94642.97;;;6.43;100.00
71105;BME280;58760;48.716;8.962;2024-02-26T04:06:39;94648.47;;;6.48;100.00
71105;BME280;58760;48.716;8.962;2024-02-26T04:09:04;94634.06;;;6.51;100.00
71105;BME280;58760;48.716;8.962;2024-02-26T04:11:29;94632.47;;;6.50;100.00
71105;BME280;58760;48.716;8.962;2024-02-26T04:13:57;94635.09;;;6.50;100.00
71105;BME280;58760;48.716;8.962;2024-02-26T04:16:23;94633.84;;;6.46;100.00
71105;BME280;58760;48.716;8.962;2024-02-26T04:18:48;94648.00;;;6.38;100.00
71105;BME280;58760;48.716;8.962;2024-02-26T04:21:14;94651.44;;;6.39;100.00
71105;BME280;58760;48.716;8.962;2024-02-26T04:23:39;94655.16;;;6.51;100.00
71105;BME280;58760;48.716;8.962;2024-02-26T04:26:05;94635.72;;;6.52;100.00
71105;BME280;58760;48.716;8.962;2024-02-26T04:28:30;94627.19;;;6.50;100.00
71105;BME280;58760;48.716;8.962;2024-02-26T04:30:56;94630.91;;;6.62;100.00
71105;BME280;58760;48.716;8.962;2024-02-26T04:33:22;94622.66;;;6.78;100.00
71105;BME280;58760;48.716;8.962;2024-02-26T04:35:47;94625.25;;;6.65;100.00
71105;BME280;58760;48.716;8.962;2024-02-26T04:38:12;94645.41;;;6.45;100.00
71105;BME280;58760;48.716;8.962;2024-02-26T04:40:39;94647.81;;;6.40;100.00
71105;BME280;58760;48.716;8.962;2024-02-26T04:43:04;94656.31;;;6.42;100.00
71105;BME280;58760;48.716;8.962;2024-02-26T04:45:30;94655.88;;;6.38;100.00
71105;BME280;58760;48.716;8.962;2024-02-26T04:47:59;94653.13;;;6.46;100.00
71105;BME280;58760;48.716;8.962;2024-02-26T04:50:24;94650.63;;;6.38;100.00
71105;BME280;58760;48.716;8.962;2024-02-26T04:52:51;94658.56;;;6.45;100.00
71105;BME280;58760;48.716;8.962;2024-02-26T04:55:21;94646.03;;;6.47;100.00
71105;BME280;58760;48.716;8.962;2024-02-26T04:57:46;94644.00;;;6.49;100.00
71105;BME280;58760;48.716;8.962;2024-02-26T05:00:13;94647.56;;;6.69;100.00
71105;BME280;58760;48.716;8.962;2024-02-26T05:02:39;94650.00;;;6.70;100.00
71105;BME280;58760;48.716;8.962;2024-02-26T05:05:05;94653.16;;;6.53;100.00
71105;BME280;58760;48.716;8.962;2024-02-26T05:07:31;94674.38;;;6.45;100.00
71105;BME280;58760;48.716;8.962;2024-02-26T05:09:57;94680.28;;;6.47;100.00
71105;BME280;58760;48.716;8.962;2024-02-26T05:12:22;94682.28;;;6.45;100.00
71105;BME280;58760;48.716;8.962;2024-02-26T05:14:48;94683.31;;;6.44;100.00
71105;BME280;58760;48.716;8.962;2024-02-26T05:17:13;94682.63;;;6.35;100.00
71105;BME280;58760;48.716;8.962;2024-02-26T05:19:38;94676.22;;;6.85;100.00
71105;BME280;58760;48.716;8.962;2024-02-26T05:22:04;94682.13;;;6.53;100.00
71105;BME280;58760;48.716;8.962;2024-02-26T05:24:29;94691.22;;;6.44;100.00
71105;BME280;58760;48.716;8.962;2024-02-26T05:26:56;94687.19;;;6.54;100.00
71105;BME280;58760;48.716;8.962;2024-02-26T05:29:21;94703.91;;;6.68;100.00
71105;BME280;58760;48.716;8.962;2024-02-26T05:31:47;94702.34;;;6.80;100.00
71105;BME280;58760;48.716;8.962;2024-02-26T05:34:16;94705.00;;;6.87;100.00
71105;BME280;58760;48.716;8.962;2024-02-26T05:36:42;94713.59;;;6.61;100.00
71105;BME280;58760;48.716;8.962;2024-02-26T05:39:07;94724.81;;;6.42;100.00
71105;BME280;58760;48.716;8.962;2024-02-26T05:41:33;94732.72;;;6.42;100.00
71105;BME280;58760;48.716;8.962;2024-02-26T05:43:59;94726.91;;;6.25;100.00
71105;BME280;58760;48.716;8.962;2024-02-26T05:46:24;94741.03;;;6.17;100.00
71105;BME280;58760;48.716;8.962;2024-02-26T05:48:51;94748.06;;;6.10;100.00
71105;BME280;58760;48.716;8.962;2024-02-26T05:51:19;94732.66;;;6.07;100.00
71105;BME280;58760;48.716;8.962;2024-02-26T05:53:47;94735.13;;;6.15;100.00
71105;BME280;58760;48.716;8.962;2024-02-26T05:56:19;94743.69;;;5.96;100.00
71105;BME280;58760;48.716;8.962;2024-02-26T05:58:45;94758.69;;;5.81;100.00
71105;BME280;58760;48.716;8.962;2024-02-26T06:01:10;94760.44;;;5.74;100.00
71105;BME280;58760;48.716;8.962;2024-02-26T06:03:36;94752.53;;;5.74;100.00
71105;BME280;58760;48.716;8.962;2024-02-26T06:06:02;94759.00;;;5.71;100.00
71105;BME280;58760;48.716;8.962;2024-02-26T06:08:28;94773.53;;;5.67;100.00
71105;BME280;58760;48.716;8.962;2024-02-26T06:10:54;94769.25;;;5.66;100.00
71105;BME280;58760;48.716;8.962;2024-02-26T06:13:20;94777.59;;;5.70;100.00
71105;BME280;58760;48.716;8.962;2024-02-26T06:15:45;94767.06;;;5.70;100.00
71105;BME280;58760;48.716;8.962;2024-02-26T06:18:11;94765.06;;;5.72;100.00
71105;BME280;58760;48.716;8.962;2024-02-26T06:20:37;94768.31;;;5.74;100.00
71105;BME280;58760;48.716;8.962;2024-02-26T06:23:02;94766.31;;;5.76;100.00
71105;BME280;58760;48.716;8.962;2024-02-26T06:25:28;94772.97;;;5.72;100.00
71105;BME280;58760;48.716;8.962;2024-02-26T06:27:53;94781.00;;;6.27;100.00
71105;BME280;58760;48.716;8.962;2024-02-26T06:30:20;94760.34;;;6.03;100.00
71105;BME280;58760;48.716;8.962;2024-02-26T06:32:46;94767.03;;;5.85;100.00
71105;BME280;58760;48.716;8.962;2024-02-26T06:35:11;94764.03;;;6.09;100.00
71105;BME280;58760;48.716;8.962;2024-02-26T06:37:37;94764.44;;;5.70;100.00
71105;BME280;58760;48.716;8.962;2024-02-26T06:40:03;94782.47;;;5.73;100.00
71105;BME280;58760;48.716;8.962;2024-02-26T06:42:34;94772.84;;;5.80;100.00
71105;BME280;58760;48.716;8.962;2024-02-26T06:45:00;94781.47;;;5.74;100.00
71105;BME280;58760;48.716;8.962;2024-02-26T06:47:26;94785.94;;;5.88;100.00
71105;BME280;58760;48.716;8.962;2024-02-26T06:49:51;94784.03;;;6.03;100.00
71105;BME280;58760;48.716;8.962;2024-02-26T06:52:17;94791.34;;;5.87;100.00
71105;BME280;58760;48.716;8.962;2024-02-26T06:54:42;94804.22;;;5.96;100.00
71105;BME280;58760;48.716;8.962;2024-02-26T06:57:07;94804.47;;;6.01;100.00
71105;BME280;58760;48.716;8.962;2024-02-26T06:59:33;94809.69;;;5.80;100.00
71105;BME280;58760;48.716;8.962;2024-02-26T07:01:59;94813.84;;;5.89;100.00
71105;BME280;58760;48.716;8.962;2024-02-26T07:04:24;94816.22;;;5.84;100.00
71105;BME280;58760;48.716;8.962;2024-02-26T07:06:49;94824.72;;;6.01;100.00
71105;BME280;58760;48.716;8.962;2024-02-26T07:16:45;94847.31;;;5.95;100.00
71105;BME280;58760;48.716;8.962;2024-02-26T07:48:01;94835.16;;;6.30;100.00
71105;BME280;58760;48.716;8.962;2024-02-26T07:50:48;94841.53;;;6.42;100.00
71105;BME280;58760;48.716;8.962;2024-02-26T07:53:44;94832.19;;;6.40;100.00
71105;BME280;58760;48.716;8.962;2024-02-26T07:56:16;94822.47;;;6.40;100.00
71105;BME280;58760;48.716;8.962;2024-02-26T07:58:49;94828.97;;;6.65;100.00
71105;BME280;58760;48.716;8.962;2024-02-26T08:01:18;94833.00;;;6.89;100.00
71105;BME280;58760;48.716;8.962;2024-02-26T08:03:48;94832.50;;;7.07;100.00
71105;BME280;58760;48.716;8.962;2024-02-26T08:06:17;94822.81;;;6.79;100.00
71105;BME280;58760;48.716;8.962;2024-02-26T08:08:49;94829.28;;;6.83;100.00
71105;BME280;58760;48.716;8.962;2024-02-26T08:11:21;94818.88;;;7.03;100.00
71105;BME280;58760;48.716;8.962;2024-02-26T08:14:03;94814.78;;;7.28;100.00
71105;BME280;58760;48.716;8.962;2024-02-26T08:17:07;94812.53;;;7.25;100.00
71105;BME280;58760;48.716;8.962;2024-02-26T08:19:42;94817.06;;;7.38;100.00
71105;BME280;58760;48.716;8.962;2024-02-26T08:22:15;94813.34;;;7.26;100.00
71105;BME280;58760;48.716;8.962;2024-02-26T08:24:48;94820.75;;;7.09;100.00
71105;BME280;58760;48.716;8.962;2024-02-26T08:27:49;94804.44;;;7.27;100.00
71105;BME280;58760;48.716;8.962;2024-02-26T08:30:43;94816.88;;;7.40;100.00
71105;BME280;58760;48.716;8.962;2024-02-26T08:34:08;94823.50;;;7.63;100.00
71105;BME280;58760;48.716;8.962;2024-02-26T08:36:54;94817.66;;;7.81;100.00
71105;BME280;58760;48.716;8.962;2024-02-26T08:39:48;94818.34;;;8.03;100.00
71105;BME280;58760;48.716;8.962;2024-02-26T08:43:41;94803.38;;;8.29;100.00
71105;BME280;58760;48.716;8.962;2024-02-26T08:46:53;94808.41;;;8.11;100.00
71105;BME280;58760;48.716;8.962;2024-02-26T08:49:50;94799.03;;;8.02;100.00
71105;BME280;58760;48.716;8.962;2024-02-26T08:53:05;94808.78;;;8.02;100.00
71105;BME280;58760;48.716;8.962;2024-02-26T09:00:26;94829.66;;;7.83;100.00
71105;BME280;58760;48.716;8.962;2024-02-26T09:03:17;94828.16;;;7.68;100.00
71105;BME280;58760;48.716;8.962;2024-02-26T09:06:23;94827.09;;;8.16;100.00
71105;BME280;58760;48.716;8.962;2024-02-26T09:09:03;94834.94;;;7.83;100.00
71105;BME280;58760;48.716;8.962;2024-02-26T09:11:44;94832.72;;;7.94;100.00
71105;BME280;58760;48.716;8.962;2024-02-26T09:14:26;94827.91;;;8.10;100.00
71105;BME280;58760;48.716;8.962;2024-02-26T09:17:20;94824.31;;;8.31;100.00
71105;BME280;58760;48.716;8.962;2024-02-26T09:20:13;94823.94;;;8.54;100.00
71105;BME280;58760;48.716;8.962;2024-02-26T09:24:04;94801.16;;;8.79;100.00
71105;BME280;58760;48.716;8.962;2024-02-26T09:31:11;94801.97;;;8.47;100.00
71105;BME280;58760;48.716;8.962;2024-02-26T09:42:06;94798.94;;;8.63;100.00
71105;BME280;58760;48.716;8.962;2024-02-26T09:44:36;94794.66;;;8.75;100.00
71105;BME280;58760;48.716;8.962;2024-02-26T09:47:05;94789.78;;;8.72;100.00
71105;BME280;58760;48.716;8.962;2024-02-26T09:49:32;94789.31;;;9.14;100.00
71105;BME280;58760;48.716;8.962;2024-02-26T09:51:59;94791.34;;;9.19;100.00
71105;BME280;58760;48.716;8.962;2024-02-26T09:54:24;94789.94;;;9.16;100.00
71105;BME280;58760;48.716;8.962;2024-02-26T09:56:53;94800.63;;;9.48;100.00
71105;BME280;58760;48.716;8.962;2024-02-26T09:59:20;94792.56;;;9.80;100.00
71105;BME280;58760;48.716;8.962;2024-02-26T10:01:46;94785.19;;;9.44;100.00
71105;BME280;58760;48.716;8.962;2024-02-26T10:04:13;94802.94;;;9.82;100.00
71105;BME280;58760;48.716;8.962;2024-02-26T10:06:40;94785.75;;;10.04;100.00
71105;BME280;58760;48.716;8.962;2024-02-26T10:09:08;94791.16;;;10.22;100.00
71105;BME280;58760;48.716;8.962;2024-02-26T10:11:35;94801.63;;;10.04;100.00
71105;BME280;58760;48.716;8.962;2024-02-26T10:14:00;94798.34;;;10.09;100.00
71105;BME280;58760;48.716;8.962;2024-02-26T10:16:26;94803.13;;;10.31;100.00
71105;BME280;58760;48.716;8.962;2024-02-26T10:18:52;94808.22;;;10.64;100.00
71105;BME280;58760;48.716;8.962;2024-02-26T10:21:22;94795.69;;;10.96;100.00
71105;BME280;58760;48.716;8.962;2024-02-26T10:23:49;94787.91;;;10.76;100.00
71105;BME280;58760;48.716;8.962;2024-02-26T10:26:15;94791.03;;;10.67;100.00
71105;BME280;58760;48.716;8.962;2024-02-26T10:28:42;94786.97;;;11.14;100.00
71105;BME280;58760;48.716;8.962;2024-02-26T10:31:09;94782.34;;;11.27;100.00
71105;BME280;58760;48.716;8.962;2024-02-26T10:33:36;94792.88;;;11.16;100.00
71105;BME280;58760;48.716;8.962;2024-02-26T10:36:03;94782.50;;;11.32;100.00
71105;BME280;58760;48.716;8.962;2024-02-26T10:38:30;94796.50;;;11.39;100.00
71105;BME280;58760;48.716;8.962;2024-02-26T10:40:56;94782.66;;;11.37;100.00
71105;BME280;58760;48.716;8.962;2024-02-26T10:43:21;94782.81;;;11.79;100.00
71105;BME280;58760;48.716;8.962;2024-02-26T10:45:46;94786.94;;;11.75;100.00
71105;BME280;58760;48.716;8.962;2024-02-26T10:48:13;94789.28;;;12.01;100.00
71105;BME280;58760;48.716;8.962;2024-02-26T10:50:40;94800.88;;;11.88;100.00
71105;BME280;58760;48.716;8.962;2024-02-26T10:53:29;94798.47;;;12.17;100.00
71105;BME280;58760;48.716;8.962;2024-02-26T10:55:57;94807.19;;;11.76;100.00
71105;BME280;58760;48.716;8.962;2024-02-26T10:58:24;94806.56;;;11.92;100.00
71105;BME280;58760;48.716;8.962;2024-02-26T11:00:50;94805.81;;;12.03;100.00
71105;BME280;58760;48.716;8.962;2024-02-26T11:03:16;94806.44;;;12.17;100.00
71105;BME280;58760;48.716;8.962;2024-02-26T11:05:46;94801.13;;;12.46;100.00
71105;BME280;58760;48.716;8.962;2024-02-26T11:08:12;94797.31;;;12.13;100.00
71105;BME280;58760;48.716;8.962;2024-02-26T11:10:38;94793.88;;;12.24;100.00
71105;BME280;58760;48.716;8.962;2024-02-26T11:13:06;94793.41;;;12.15;100.00
71105;BME280;58760;48.716;8.962;2024-02-26T11:29:41;94810.31;;;12.62;100.00
71105;BME280;58760;48.716;8.962;2024-02-26T11:32:16;94804.81;;;12.87;100.00
71105;BME280;58760;48.716;8.962;2024-02-26T11:34:45;94801.06;;;13.18;100.00
71105;BME280;58760;48.716;8.962;2024-02-26T11:37:15;94788.34;;;13.20;100.00
71105;BME280;58760;48.716;8.962;2024-02-26T11:39:45;94791.56;;;13.22;100.00
71105;BME280;58760;48.716;8.962;2024-02-26T11:42:15;94792.91;;;13.71;100.00
71105;BME280;58760;48.716;8.962;2024-02-26T11:44:46;94791.28;;;13.81;100.00
71105;BME280;58760;48.716;8.962;2024-02-26T11:47:27;94782.16;;;14.05;100.00
71105;BME280;58760;48.716;8.962;2024-02-26T11:49:55;94780.38;;;14.51;100.00
71105;BME280;58760;48.716;8.962;2024-02-26T11:52:21;94771.31;;;14.24;100.00
71105;BME280;58760;48.716;8.962;2024-02-26T11:54:53;94771.47;;;14.45;100.00
71105;BME280;58760;48.716;8.962;2024-02-26T11:57:28;94774.75;;;14.24;100.00
71105;BME280;58760;48.716;8.962;2024-02-26T12:00:11;94781.00;;;14.41;100.00
71105;BME280;58760;48.716;8.962;2024-02-26T12:02:44;94788.84;;;14.20;100.00
71105;BME280;58760;48.716;8.962;2024-02-26T12:05:14;94798.00;;;13.72;100.00
71105;BME280;58760;48.716;8.962;2024-02-26T12:07:48;94791.44;;;14.03;100.00
71105;BME280;58760;48.716;8.962;2024-02-26T12:10:37;94786.84;;;13.87;100.00
71105;BME280;58760;48.716;8.962;2024-02-26T12:13:11;94796.41;;;13.59;100.00
71105;BME280;58760;48.716;8.962;2024-02-26T12:15:45;94802.78;;;13.47;100.00
71105;BME280;58760;48.716;8.962;2024-02-26T12:18:17;94802.34;;;13.15;100.00
71105;BME280;58760;48.716;8.962;2024-02-26T12:20:43;94801.97;;;13.12;100.00
71105;BME280;58760;48.716;8.962;2024-02-26T12:23:16;94803.91;;;13.62;100.00
71105;BME280;58760;48.716;8.962;2024-02-26T12:25:44;94812.16;;;13.49;100.00
71105;BME280;58760;48.716;8.962;2024-02-26T12:28:14;94813.44;;;13.58;100.00
71105;BME280;58760;48.716;8.962;2024-02-26T12:30:39;94810.56;;;13.48;100.00
71105;BME280;58760;48.716;8.962;2024-02-26T12:33:05;94807.53;;;13.56;100.00
71105;BME280;58760;48.716;8.962;2024-02-26T12:35:32;94802.31;;;13.50;100.00
71105;BME280;58760;48.716;8.962;2024-02-26T12:37:58;94803.00;;;13.57;100.00
71105;BME280;58760;48.716;8.962;2024-02-26T12:40:23;94802.31;;;13.61;100.00
71105;BME280;58760;48.716;8.962;2024-02-26T12:42:49;94798.34;;;13.76;100.00
71105;BME280;58760;48.716;8.962;2024-02-26T12:45:15;94798.81;;;13.73;100.00
71105;BME280;58760;48.716;8.962;2024-02-26T12:47:42;94798.88;;;14.01;100.00
71105;BME280;58760;48.716;8.962;2024-02-26T12:50:09;94800.59;;;14.07;100.00
71105;BME280;58760;48.716;8.962;2024-02-26T12:52:39;94795.63;;;13.99;100.00
71105;BME280;58760;48.716;8.962;2024-02-26T12:55:05;94802.75;;;14.33;100.00
71105;BME280;58760;48.716;8.962;2024-02-26T12:57:33;94799.66;;;14.41;100.00
71105;BME280;58760;48.716;8.962;2024-02-26T12:59:59;94801.19;;;14.65;100.00
71105;BME280;58760;48.716;8.962;2024-02-26T13:02:26;94807.59;;;15.64;100.00
71105;BME280;58760;48.716;8.962;2024-02-26T13:04:53;94805.00;;;15.69;100.00
71105;BME280;58760;48.716;8.962;2024-02-26T13:07:20;94807.91;;;16.33;100.00
71105;BME280;58760;48.716;8.962;2024-02-26T13:09:46;94799.75;;;16.66;100.00
71105;BME280;58760;48.716;8.962;2024-02-26T13:12:12;94803.38;;;16.55;100.00
71105;BME280;58760;48.716;8.962;2024-02-26T13:14:37;94803.28;;;17.72;100.00
71105;BME280;58760;48.716;8.962;2024-02-26T13:17:03;94806.88;;;17.88;100.00
71105;BME280;58760;48.716;8.962;2024-02-26T13:19:28;94802.41;;;18.09;100.00
71105;BME280;58760;48.716;8.962;2024-02-26T13:21:54;94807.38;;;17.85;100.00
71105;BME280;58760;48.716;8.962;2024-02-26T13:24:20;94786.81;;;18.93;100.00
71105;BME280;58760;48.716;8.962;2024-02-26T13:26:57;94794.66;;;19.50;97.99
71105;BME280;58760;48.716;8.962;2024-02-26T13:29:23;94796.25;;;19.51;97.43
71105;BME280;58760;48.716;8.962;2024-02-26T13:31:59;94793.97;;;20.14;91.45
71105;BME280;58760;48.716;8.962;2024-02-26T13:34:26;94796.25;;;19.16;98.29
71105;BME280;58760;48.716;8.962;2024-02-26T13:36:53;94806.22;;;19.10;100.00
71105;BME280;58760;48.716;8.962;2024-02-26T13:39:26;94809.63;;;18.70;96.13
71105;BME280;58760;48.716;8.962;2024-02-26T13:41:51;94817.28;;;17.80;100.00
71105;BME280;58760;48.716;8.962;2024-02-26T13:44:18;94825.41;;;16.89;100.00
71105;BME280;58760;48.716;8.962;2024-02-26T13:46:44;94826.25;;;16.68;100.00
71105;BME280;58760;48.716;8.962;2024-02-26T13:49:12;94821.19;;;16.23;100.00
71105;BME280;58760;48.716;8.962;2024-02-26T13:51:39;94822.19;;;16.17;100.00
71105;BME280;58760;48.716;8.962;2024-02-26T13:54:04;94816.88;;;16.00;100.00
71105;BME280;58760;48.716;8.962;2024-02-26T13:56:31;94815.28;;;15.61;100.00
71105;BME280;58760;48.716;8.962;2024-02-26T13:58:56;94823.34;;;15.83;100.00
71105;BME280;58760;48.716;8.962;2024-02-26T14:01:22;94814.66;;;15.92;100.00
71105;BME280;58760;48.716;8.962;2024-02-26T14:03:47;94816.38;;;16.47;100.00
71105;BME280;58760;48.716;8.962;2024-02-26T14:06:14;94816.88;;;17.98;100.00
71105;BME280;58760;48.716;8.962;2024-02-26T14:08:39;94807.84;;;19.47;100.00
71105;BME280;58760;48.716;8.962;2024-02-26T14:11:05;94805.66;;;20.58;91.59
71105;BME280;58760;48.716;8.962;2024-02-26T14:13:30;94802.44;;;20.61;87.59
71105;BME280;58760;48.716;8.962;2024-02-26T14:18:22;94809.03;;;21.91;79.47